sensor_id;sensor_type;location;lat;lon;timestamp;pressure;altitude;pressure_sealevel;temperature;humidity
48614;BME280;34408;51.426;5.444;2023-04-25T00:02:21;101046.97;;;10.50;57.69
48614;BME280;34408;51.426;5.444;2023-04-25T00:04:51;101048.00;;;10.49;57.56
48614;BME280;34408;51.426;5.444;2023-04-25T00:07:19;101057.72;;;10.50;57.64
48614;BME280;34408;51.426;5.444;2023-04-25T00:09:47;101051.50;;;10.50;57.70
48614;BME280;34408;51.426;5.444;2023-04-25T00:12:15;101056.28;;;10.48;57.78
48614;BME280;34408;51.426;5.444;2023-04-25T00:14:43;101062.47;;;10.48;57.78
48614;BME280;34408;51.426;5.444;2023-04-25T00:17:11;101049.53;;;10.38;57.88
48614;BME280;34408;51.426;5.444;2023-04-25T00:19:39;101068.06;;;10.47;57.54
48614;BME280;34408;51.426;5.444;2023-04-25T00:22:08;101068.28;;;10.45;57.80
48614;BME280;34408;51.426;5.444;2023-04-25T00:24:36;101068.28;;;10.45;58.02
48614;BME280;34408;51.426;5.444;2023-04-25T00:27:04;101059.41;;;10.44;57.97
48614;BME280;34408;51.426;5.444;2023-04-25T00:29:32;101062.91;;;10.45;57.93
48614;BME280;34408;51.426;5.444;2023-04-25T00:31:59;101058.56;;;10.44;57.88
48614;BME280;34408;51.426;5.444;2023-04-25T00:34:28;101065.81;;;10.43;57.83
48614;BME280;34408;51.426;5.444;2023-04-25T00:36:55;101064.16;;;10.42;57.74
48614;BME280;34408;51.426;5.444;2023-04-25T00:39:25;101060.66;;;10.42;57.95
48614;BME280;34408;51.426;5.444;2023-04-25T00:41:54;101062.50;;;10.41;57.88
48614;BME280;34408;51.426;5.444;2023-04-25T00:44:22;101063.56;;;10.40;57.96
48614;BME280;34408;51.426;5.444;2023-04-25T00:46:51;101058.19;;;10.40;58.10
48614;BME280;34408;51.426;5.444;2023-04-25T00:49:19;101057.38;;;10.40;58.15
48614;BME280;34408;51.426;5.444;2023-04-25T00:51:47;101049.53;;;10.38;58.04
48614;BME280;34408;51.426;5.444;2023-04-25T00:54:16;101054.69;;;10.40;58.24
48614;BME280;34408;51.426;5.444;2023-04-25T00:56:45;101058.19;;;10.40;58.26
48614;BME280;34408;51.426;5.444;2023-04-25T00:59:15;101057.59;;;10.38;58.13
48614;BME280;34408;51.426;5.444;2023-04-25T01:01:43;101058.44;;;10.39;58.20
48614;BME280;34408;51.426;5.444;2023-04-25T01:04:11;101064.84;;;10.38;58.19
48614;BME280;34408;51.426;5.444;2023-04-25T01:06:40;101063.19;;;10.37;58.08
48614;BME280;34408;51.426;5.444;2023-04-25T01:09:09;101064.22;;;10.36;58.39
48614;BME280;34408;51.426;5.444;2023-04-25T01:11:37;101058.03;;;10.35;58.22
48614;BME280;34408;51.426;5.444;2023-04-25T01:14:07;101056.59;;;10.33;58.49
48614;BME280;34408;51.426;5.444;2023-04-25T01:16:35;101063.63;;;10.34;58.17
48614;BME280;34408;51.426;5.444;2023-04-25T01:19:05;101060.94;;;10.34;58.35
48614;BME280;34408;51.426;5.444;2023-04-25T01:21:38;101060.13;;;10.33;58.29
48614;BME280;34408;51.426;5.444;2023-04-25T01:24:07;101054.34;;;10.30;58.39
48614;BME280;34408;51.426;5.444;2023-04-25T01:26:35;101064.28;;;10.29;58.06
48614;BME280;34408;51.426;5.444;2023-04-25T01:29:03;101063.22;;;10.30;58.12
48614;BME280;34408;51.426;5.444;2023-04-25T01:31:32;101068.81;;;10.29;58.12
48614;BME280;34408;51.426;5.444;2023-04-25T01:34:00;101069.84;;;10.28;58.40
48614;BME280;34408;51.426;5.444;2023-04-25T01:36:28;101072.53;;;10.28;58.34
48614;BME280;34408;51.426;5.444;2023-04-25T01:38:58;101070.88;;;10.27;58.17
48614;BME280;34408;51.426;5.444;2023-04-25T01:41:26;101073.78;;;10.25;58.43
48614;BME280;34408;51.426;5.444;2023-04-25T01:43:54;101069.47;;;10.24;58.38
48614;BME280;34408;51.426;5.444;2023-04-25T01:46:23;101071.31;;;10.24;58.38
48614;BME280;34408;51.426;5.444;2023-04-25T01:48:51;101066.97;;;10.23;58.29
48614;BME280;34408;51.426;5.444;2023-04-25T01:51:18;101075.25;;;10.21;58.30
48614;BME280;34408;51.426;5.444;2023-04-25T01:53:47;101079.59;;;10.22;58.25
48614;BME280;34408;51.426;5.444;2023-04-25T01:56:17;101075.47;;;10.20;58.32
48614;BME280;34408;51.426;5.444;2023-04-25T01:58:45;101077.31;;;10.19;58.54
48614;BME280;34408;51.426;5.444;2023-04-25T02:01:13;101082.66;;;10.19;58.62
48614;BME280;34408;51.426;5.444;2023-04-25T02:03:41;101080.00;;;10.19;58.29
48614;BME280;34408;51.426;5.444;2023-04-25T02:06:09;101083.72;;;10.18;58.58
48614;BME280;34408;51.426;5.444;2023-04-25T02:08:36;101087.22;;;10.19;58.75
48614;BME280;34408;51.426;5.444;2023-04-25T02:11:04;101090.13;;;10.17;58.71
48614;BME280;34408;51.426;5.444;2023-04-25T02:13:33;101091.16;;;10.16;58.46
48614;BME280;34408;51.426;5.444;2023-04-25T02:16:01;101097.56;;;10.15;58.72
48614;BME280;34408;51.426;5.444;2023-04-25T02:18:29;101094.06;;;10.15;58.34
48614;BME280;34408;51.426;5.444;2023-04-25T02:20:57;101094.25;;;10.13;58.39
48614;BME280;34408;51.426;5.444;2023-04-25T02:23:25;101089.72;;;10.14;58.87
48614;BME280;34408;51.426;5.444;2023-04-25T02:25:53;101098.81;;;10.13;58.68
48614;BME280;34408;51.426;5.444;2023-04-25T02:28:21;101093.66;;;10.11;58.56
48614;BME280;34408;51.426;5.444;2023-04-25T02:30:50;101100.06;;;10.10;58.72
48614;BME280;34408;51.426;5.444;2023-04-25T02:33:18;101101.91;;;10.09;58.84
48614;BME280;34408;51.426;5.444;2023-04-25T02:35:47;101090.34;;;10.09;58.51
48614;BME280;34408;51.426;5.444;2023-04-25T02:38:15;101101.09;;;10.09;58.96
48614;BME280;34408;51.426;5.444;2023-04-25T02:40:43;101097.59;;;10.08;58.50
48614;BME280;34408;51.426;5.444;2023-04-25T02:43:11;101096.75;;;10.08;58.92
48614;BME280;34408;51.426;5.444;2023-04-25T02:45:38;101105.03;;;10.06;58.99
48614;BME280;34408;51.426;5.444;2023-04-25T02:48:07;101109.38;;;10.07;58.62
48614;BME280;34408;51.426;5.444;2023-04-25T02:50:35;101098.00;;;10.05;58.94
48614;BME280;34408;51.426;5.444;2023-04-25T02:53:03;101103.59;;;10.04;58.55
48614;BME280;34408;51.426;5.444;2023-04-25T02:55:31;101106.28;;;10.04;59.03
48614;BME280;34408;51.426;5.444;2023-04-25T02:57:58;101106.50;;;10.02;58.75
48614;BME280;34408;51.426;5.444;2023-04-25T03:00:26;101095.13;;;10.00;58.56
48614;BME280;34408;51.426;5.444;2023-04-25T03:02:54;101097.00;;;10.00;58.68
48614;BME280;34408;51.426;5.444;2023-04-25T03:05:24;101093.50;;;9.99;58.49
48614;BME280;34408;51.426;5.444;2023-04-25T03:07:52;101095.34;;;9.99;58.77
48614;BME280;34408;51.426;5.444;2023-04-25T03:10:20;101096.38;;;9.98;58.82
48614;BME280;34408;51.426;5.444;2023-04-25T03:12:47;101095.34;;;9.99;58.80
48614;BME280;34408;51.426;5.444;2023-04-25T03:15:15;101106.09;;;9.99;58.59
48614;BME280;34408;51.426;5.444;2023-04-25T03:17:43;101104.66;;;9.96;58.73
48614;BME280;34408;51.426;5.444;2023-04-25T03:20:11;101107.34;;;9.96;58.89
48614;BME280;34408;51.426;5.444;2023-04-25T03:22:40;101103.81;;;9.96;59.02
48614;BME280;34408;51.426;5.444;2023-04-25T03:25:08;101110.22;;;9.95;58.52
48614;BME280;34408;51.426;5.444;2023-04-25T03:27:36;101113.97;;;9.94;58.87
48614;BME280;34408;51.426;5.444;2023-04-25T03:30:05;101109.63;;;9.93;58.72
48614;BME280;34408;51.426;5.444;2023-04-25T03:32:34;101118.72;;;9.92;58.62
48614;BME280;34408;51.426;5.444;2023-04-25T03:35:02;101109.00;;;9.91;58.65
48614;BME280;34408;51.426;5.444;2023-04-25T03:37:30;101116.25;;;9.90;58.90
48614;BME280;34408;51.426;5.444;2023-04-25T03:39:59;101108.41;;;9.89;58.60
48614;BME280;34408;51.426;5.444;2023-04-25T03:42:26;101113.97;;;9.87;58.60
48614;BME280;34408;51.426;5.444;2023-04-25T03:44:54;101115.84;;;9.87;59.00
48614;BME280;34408;51.426;5.444;2023-04-25T03:47:22;101116.66;;;9.87;58.55
48614;BME280;34408;51.426;5.444;2023-04-25T03:49:50;101111.28;;;9.87;58.95
48614;BME280;34408;51.426;5.444;2023-04-25T03:52:18;101113.16;;;9.87;58.55
48614;BME280;34408;51.426;5.444;2023-04-25T03:54:45;101113.34;;;9.85;58.42
48614;BME280;34408;51.426;5.444;2023-04-25T03:57:15;101112.53;;;9.85;59.06
48614;BME280;34408;51.426;5.444;2023-04-25T03:59:42;101117.06;;;9.84;58.74
48614;BME280;34408;51.426;5.444;2023-04-25T04:02:10;101117.28;;;9.83;58.98
48614;BME280;34408;51.426;5.444;2023-04-25T04:04:38;101117.28;;;9.83;58.83
48614;BME280;34408;51.426;5.444;2023-04-25T04:07:06;101106.78;;;9.74;58.83
48614;BME280;34408;51.426;5.444;2023-04-25T04:09:34;101123.47;;;9.83;58.76
48614;BME280;34408;51.426;5.444;2023-04-25T04:12:02;101124.31;;;9.84;58.93
48614;BME280;34408;51.426;5.444;2023-04-25T04:14:31;101125.75;;;9.79;58.88
48614;BME280;34408;51.426;5.444;2023-04-25T04:16:59;101133.41;;;9.83;59.02
48614;BME280;34408;51.426;5.444;2023-04-25T04:19:27;101133.41;;;9.83;58.71
48614;BME280;34408;51.426;5.444;2023-04-25T04:21:55;101128.84;;;9.83;58.78
48614;BME280;34408;51.426;5.444;2023-04-25T04:24:22;101135.25;;;9.82;58.71
48614;BME280;34408;51.426;5.444;2023-04-25T04:26:50;101137.94;;;9.82;59.44
48614;BME280;34408;51.426;5.444;2023-04-25T04:29:18;101139.81;;;9.82;58.98
48614;BME280;34408;51.426;5.444;2023-04-25T04:31:50;101138.97;;;9.81;59.42
48614;BME280;34408;51.426;5.444;2023-04-25T04:34:19;101143.50;;;9.81;58.96
48614;BME280;34408;51.426;5.444;2023-04-25T04:36:47;101155.06;;;9.81;59.09
48614;BME280;34408;51.426;5.444;2023-04-25T04:39:15;101152.59;;;9.79;58.96
48614;BME280;34408;51.426;5.444;2023-04-25T04:41:43;101158.78;;;9.80;59.29
48614;BME280;34408;51.426;5.444;2023-04-25T04:44:10;101156.09;;;9.80;59.07
48614;BME280;34408;51.426;5.444;2023-04-25T04:46:38;101157.97;;;9.79;58.96
48614;BME280;34408;51.426;5.444;2023-04-25T04:49:11;101153.63;;;9.78;59.55
48614;BME280;34408;51.426;5.444;2023-04-25T04:51:40;101157.34;;;9.77;59.55
48614;BME280;34408;51.426;5.444;2023-04-25T04:54:10;101156.53;;;9.77;59.03
48614;BME280;34408;51.426;5.444;2023-04-25T04:56:38;101162.94;;;9.76;59.25
48614;BME280;34408;51.426;5.444;2023-04-25T04:59:06;101163.97;;;9.75;59.47
48614;BME280;34408;51.426;5.444;2023-04-25T05:01:34;101163.13;;;9.74;58.61
48614;BME280;34408;51.426;5.444;2023-04-25T05:04:02;101163.75;;;9.70;58.99
48614;BME280;34408;51.426;5.444;2023-04-25T05:06:32;101185.03;;;9.71;59.34
48614;BME280;34408;51.426;5.444;2023-04-25T05:08:59;101187.09;;;9.69;58.90
48614;BME280;34408;51.426;5.444;2023-04-25T05:11:27;101194.31;;;9.69;59.13
48614;BME280;34408;51.426;5.444;2023-04-25T05:13:55;101190.19;;;9.66;59.11
48614;BME280;34408;51.426;5.444;2023-04-25T05:16:23;101193.91;;;9.65;58.73
48614;BME280;34408;51.426;5.444;2023-04-25T05:18:50;101199.69;;;9.62;58.48
48614;BME280;34408;51.426;5.444;2023-04-25T05:21:18;101202.38;;;9.62;59.31
48614;BME280;34408;51.426;5.444;2023-04-25T05:23:47;101198.88;;;9.62;58.74
48614;BME280;34408;51.426;5.444;2023-04-25T05:26:16;101202.78;;;9.59;58.69
48614;BME280;34408;51.426;5.444;2023-04-25T05:28:43;101213.31;;;9.61;59.22
48614;BME280;34408;51.426;5.444;2023-04-25T05:31:11;101210.41;;;9.62;59.19
48614;BME280;34408;51.426;5.444;2023-04-25T05:33:39;101202.38;;;9.62;59.08
48614;BME280;34408;51.426;5.444;2023-04-25T05:36:07;101200.09;;;9.59;59.30
48614;BME280;34408;51.426;5.444;2023-04-25T05:38:35;101211.66;;;9.60;59.02
48614;BME280;34408;51.426;5.444;2023-04-25T05:41:04;101210.84;;;9.59;59.19
48614;BME280;34408;51.426;5.444;2023-04-25T05:43:32;101211.88;;;9.58;58.90
48614;BME280;34408;51.426;5.444;2023-04-25T05:46:00;101219.91;;;9.58;59.34
48614;BME280;34408;51.426;5.444;2023-04-25T05:48:28;101208.78;;;9.55;59.46
48614;BME280;34408;51.426;5.444;2023-04-25T05:50:56;101225.28;;;9.58;58.87
48614;BME280;34408;51.426;5.444;2023-04-25T05:53:24;101224.88;;;9.55;59.02
48614;BME280;34408;51.426;5.444;2023-04-25T05:55:51;101230.03;;;9.56;59.21
48614;BME280;34408;51.426;5.444;2023-04-25T05:58:20;101231.88;;;9.56;59.06
48614;BME280;34408;51.426;5.444;2023-04-25T06:00:48;101235.81;;;9.53;58.94
48614;BME280;34408;51.426;5.444;2023-04-25T06:03:16;101237.47;;;9.54;58.92
48614;BME280;34408;51.426;5.444;2023-04-25T06:05:46;101238.28;;;9.55;59.39
48614;BME280;34408;51.426;5.444;2023-04-25T06:08:14;101241.19;;;9.60;59.23
48614;BME280;34408;51.426;5.444;2023-04-25T06:10:42;101245.94;;;9.64;59.31
48614;BME280;34408;51.426;5.444;2023-04-25T06:13:10;101248.81;;;9.83;58.80
48614;BME280;34408;51.426;5.444;2023-04-25T06:15:39;101252.94;;;9.98;58.79
48614;BME280;34408;51.426;5.444;2023-04-25T06:18:07;101252.72;;;10.13;57.40
48614;BME280;34408;51.426;5.444;2023-04-25T06:20:34;101251.28;;;10.24;57.00
48614;BME280;34408;51.426;5.444;2023-04-25T06:23:02;101249.19;;;10.39;56.56
48614;BME280;34408;51.426;5.444;2023-04-25T06:25:30;101249.34;;;10.51;56.46
48614;BME280;34408;51.426;5.444;2023-04-25T06:27:58;101251.75;;;10.65;56.19
48614;BME280;34408;51.426;5.444;2023-04-25T06:30:26;101250.66;;;10.80;55.37
48614;BME280;34408;51.426;5.444;2023-04-25T06:32:55;101253.91;;;10.95;54.70
48614;BME280;34408;51.426;5.444;2023-04-25T06:35:23;101254.72;;;11.02;54.22
48614;BME280;34408;51.426;5.444;2023-04-25T06:37:51;101259.66;;;11.05;53.98
48614;BME280;34408;51.426;5.444;2023-04-25T06:40:19;101259.47;;;11.00;53.59
48614;BME280;34408;51.426;5.444;2023-04-25T06:42:46;101262.81;;;10.95;53.49
48614;BME280;34408;51.426;5.444;2023-04-25T06:45:14;101270.25;;;10.93;53.02
48614;BME280;34408;51.426;5.444;2023-04-25T06:47:42;101268.16;;;11.02;52.63
48614;BME280;34408;51.426;5.444;2023-04-25T06:50:11;101279.78;;;10.96;52.71
48614;BME280;34408;51.426;5.444;2023-04-25T06:52:39;101277.38;;;10.74;52.13
48614;BME280;34408;51.426;5.444;2023-04-25T06:55:08;101280.75;;;10.50;52.47
48614;BME280;34408;51.426;5.444;2023-04-25T06:57:36;101280.59;;;10.38;52.82
48614;BME280;34408;51.426;5.444;2023-04-25T07:00:05;101282.69;;;10.30;52.86
48614;BME280;34408;51.426;5.444;2023-04-25T07:02:36;101274.22;;;10.20;52.64
48614;BME280;34408;51.426;5.444;2023-04-25T07:05:04;101281.44;;;10.19;52.31
48614;BME280;34408;51.426;5.444;2023-04-25T07:07:36;101277.72;;;10.14;52.35
48614;BME280;34408;51.426;5.444;2023-04-25T07:10:04;101290.53;;;10.11;52.57
48614;BME280;34408;51.426;5.444;2023-04-25T07:12:32;101290.13;;;10.08;52.09
48614;BME280;34408;51.426;5.444;2023-04-25T07:15:00;101298.59;;;10.11;52.36
48614;BME280;34408;51.426;5.444;2023-04-25T07:17:32;101301.47;;;10.17;51.74
48614;BME280;34408;51.426;5.444;2023-04-25T07:20:01;101301.25;;;10.18;52.10
48614;BME280;34408;51.426;5.444;2023-04-25T07:22:30;101303.13;;;10.18;51.65
48614;BME280;34408;51.426;5.444;2023-04-25T07:24:59;101300.66;;;10.23;51.60
48614;BME280;34408;51.426;5.444;2023-04-25T07:27:27;101303.56;;;10.28;50.66
48614;BME280;34408;51.426;5.444;2023-04-25T07:29:54;101301.50;;;10.30;50.90
48614;BME280;34408;51.426;5.444;2023-04-25T07:32:22;101306.47;;;10.26;50.51
48614;BME280;34408;51.426;5.444;2023-04-25T07:34:50;101306.22;;;10.15;50.46
48614;BME280;34408;51.426;5.444;2023-04-25T07:37:18;101308.50;;;10.11;50.98
48614;BME280;34408;51.426;5.444;2023-04-25T07:39:46;101310.38;;;10.04;50.54
48614;BME280;34408;51.426;5.444;2023-04-25T07:42:15;101309.94;;;10.14;50.18
48614;BME280;34408;51.426;5.444;2023-04-25T07:44:43;101317.78;;;10.15;49.66
48614;BME280;34408;51.426;5.444;2023-04-25T07:47:11;101314.50;;;10.13;49.62
48614;BME280;34408;51.426;5.444;2023-04-25T07:49:39;101320.06;;;10.05;49.95
48614;BME280;34408;51.426;5.444;2023-04-25T07:52:07;101320.47;;;10.02;49.84
48614;BME280;34408;51.426;5.444;2023-04-25T07:54:35;101329.97;;;9.98;50.04
48614;BME280;34408;51.426;5.444;2023-04-25T07:57:03;101332.66;;;9.98;49.93
48614;BME280;34408;51.426;5.444;2023-04-25T07:59:34;101333.69;;;9.97;50.04
48614;BME280;34408;51.426;5.444;2023-04-25T08:02:02;101334.13;;;10.00;50.20
48614;BME280;34408;51.426;5.444;2023-04-25T08:04:29;101335.78;;;10.01;50.48
48614;BME280;34408;51.426;5.444;2023-04-25T08:06:58;101342.19;;;10.07;50.07
48614;BME280;34408;51.426;5.444;2023-04-25T08:09:26;101344.47;;;10.23;50.20
48614;BME280;34408;51.426;5.444;2023-04-25T08:11:54;101351.66;;;10.56;49.35
48614;BME280;34408;51.426;5.444;2023-04-25T08:14:21;101347.50;;;10.66;48.24
48614;BME280;34408;51.426;5.444;2023-04-25T08:16:50;101357.59;;;10.84;47.97
48614;BME280;34408;51.426;5.444;2023-04-25T08:19:18;101352.63;;;10.88;47.86
48614;BME280;34408;51.426;5.444;2023-04-25T08:21:46;101363.13;;;11.02;47.45
48614;BME280;34408;51.426;5.444;2023-04-25T08:24:14;101369.25;;;11.23;46.92
48614;BME280;34408;51.426;5.444;2023-04-25T08:26:41;101366.59;;;11.16;46.78
48614;BME280;34408;51.426;5.444;2023-04-25T08:29:10;101375.72;;;11.08;47.17
48614;BME280;34408;51.426;5.444;2023-04-25T08:31:37;101372.66;;;10.98;47.51
48614;BME280;34408;51.426;5.444;2023-04-25T08:34:07;101379.09;;;10.84;47.74
48614;BME280;34408;51.426;5.444;2023-04-25T08:36:34;101384.69;;;10.76;47.73
48614;BME280;34408;51.426;5.444;2023-04-25T08:39:05;101392.97;;;10.68;48.39
48614;BME280;34408;51.426;5.444;2023-04-25T08:41:34;101387.00;;;10.53;48.74
48614;BME280;34408;51.426;5.444;2023-04-25T08:44:03;101391.97;;;10.42;49.12
48614;BME280;34408;51.426;5.444;2023-04-25T08:46:30;101392.63;;;10.38;49.45
48614;BME280;34408;51.426;5.444;2023-04-25T08:49:00;101403.38;;;10.31;49.53
48614;BME280;34408;51.426;5.444;2023-04-25T08:51:31;101404.16;;;10.19;49.30
48614;BME280;34408;51.426;5.444;2023-04-25T08:54:08;101405.19;;;10.11;50.13
48614;BME280;34408;51.426;5.444;2023-04-25T08:56:57;101407.88;;;10.04;50.24
48614;BME280;34408;51.426;5.444;2023-04-25T08:59:26;101413.22;;;10.04;50.79
48614;BME280;34408;51.426;5.444;2023-04-25T09:01:54;101417.78;;;9.97;50.80
48614;BME280;34408;51.426;5.444;2023-04-25T09:04:22;101425.38;;;9.87;49.35
48614;BME280;34408;51.426;5.444;2023-04-25T09:06:51;101430.75;;;9.87;49.75
48614;BME280;34408;51.426;5.444;2023-04-25T09:09:19;101434.06;;;9.89;50.45
48614;BME280;34408;51.426;5.444;2023-04-25T09:11:48;101428.47;;;9.84;49.70
48614;BME280;34408;51.426;5.444;2023-04-25T09:14:16;101445.22;;;9.86;48.88
48614;BME280;34408;51.426;5.444;2023-04-25T09:17:00;101440.88;;;9.92;49.42
48614;BME280;34408;51.426;5.444;2023-04-25T09:19:30;101457.00;;;9.92;49.40
48614;BME280;34408;51.426;5.444;2023-04-25T09:22:08;101453.06;;;9.88;49.59
48614;BME280;34408;51.426;5.444;2023-04-25T09:24:37;101437.56;;;9.83;49.99
48614;BME280;34408;51.426;5.444;2023-04-25T09:27:05;101455.13;;;9.92;49.38
48614;BME280;34408;51.426;5.444;2023-04-25T09:29:35;101457.19;;;9.90;49.56
48614;BME280;34408;51.426;5.444;2023-04-25T09:32:12;101456.38;;;9.90;49.11
48614;BME280;34408;51.426;5.444;2023-04-25T09:34:41;101466.47;;;9.88;49.42
48614;BME280;34408;51.426;5.444;2023-04-25T09:37:11;101468.13;;;9.89;49.59
48614;BME280;34408;51.426;5.444;2023-04-25T09:39:39;101467.94;;;9.90;49.70
48614;BME280;34408;51.426;5.444;2023-04-25T09:42:09;101466.09;;;9.91;49.64
48614;BME280;34408;51.426;5.444;2023-04-25T09:44:42;101467.31;;;9.88;48.79
48614;BME280;34408;51.426;5.444;2023-04-25T09:47:10;101478.06;;;9.88;48.90
48614;BME280;34408;51.426;5.444;2023-04-25T09:49:40;101478.06;;;9.95;48.66
48614;BME280;34408;51.426;5.444;2023-04-25T09:52:13;101483.25;;;9.96;48.80
48614;BME280;34408;51.426;5.444;2023-04-25T09:54:41;101475.19;;;9.96;49.49
48614;BME280;34408;51.426;5.444;2023-04-25T09:57:11;101478.09;;;10.01;49.60
48614;BME280;34408;51.426;5.444;2023-04-25T09:59:43;101476.84;;;10.04;49.33
48614;BME280;34408;51.426;5.444;2023-04-25T10:02:13;101484.72;;;10.05;49.50
48614;BME280;34408;51.426;5.444;2023-04-25T10:04:41;101479.13;;;10.07;48.55
48614;BME280;34408;51.426;5.444;2023-04-25T10:07:11;101483.28;;;10.09;49.52
48614;BME280;34408;51.426;5.444;2023-04-25T10:09:40;101481.00;;;10.13;49.41
48614;BME280;34408;51.426;5.444;2023-04-25T10:12:08;101474.59;;;10.14;49.41
48614;BME280;34408;51.426;5.444;2023-04-25T10:14:36;101478.13;;;10.15;49.75
48614;BME280;34408;51.426;5.444;2023-04-25T10:17:03;101480.59;;;10.16;49.53
48614;BME280;34408;51.426;5.444;2023-04-25T10:19:31;101473.56;;;10.15;49.50
48614;BME280;34408;51.426;5.444;2023-04-25T10:22:07;101468.84;;;10.17;49.96
48614;BME280;34408;51.426;5.444;2023-04-25T10:24:37;101473.38;;;10.17;49.97
48614;BME280;34408;51.426;5.444;2023-04-25T10:27:06;101474.19;;;10.17;49.72
48614;BME280;34408;51.426;5.444;2023-04-25T10:29:35;101479.81;;;10.22;49.94
48614;BME280;34408;51.426;5.444;2023-04-25T10:32:03;101481.47;;;10.23;49.83
48614;BME280;34408;51.426;5.444;2023-04-25T10:34:41;101478.59;;;10.31;49.43
48614;BME280;34408;51.426;5.444;2023-04-25T10:37:09;101480.66;;;10.36;49.19
48614;BME280;34408;51.426;5.444;2023-04-25T10:39:40;101483.53;;;10.41;49.23
48614;BME280;34408;51.426;5.444;2023-04-25T10:42:08;101477.53;;;10.46;48.44
48614;BME280;34408;51.426;5.444;2023-04-25T10:44:37;101485.59;;;10.46;48.81
48614;BME280;34408;51.426;5.444;2023-04-25T10:47:07;101485.19;;;10.49;48.52
48614;BME280;34408;51.426;5.444;2023-04-25T10:49:37;101472.78;;;10.48;47.67
48614;BME280;34408;51.426;5.444;2023-04-25T10:52:13;101489.34;;;10.44;47.31
48614;BME280;34408;51.426;5.444;2023-04-25T10:54:46;101484.56;;;10.47;47.10
48614;BME280;34408;51.426;5.444;2023-04-25T10:57:27;101479.00;;;10.48;47.11
48614;BME280;34408;51.426;5.444;2023-04-25T10:59:58;101484.38;;;10.48;47.72
48614;BME280;34408;51.426;5.444;2023-04-25T11:02:27;101485.41;;;10.47;47.13
48614;BME280;34408;51.426;5.444;2023-04-25T11:04:56;101483.34;;;10.49;46.81
48614;BME280;34408;51.426;5.444;2023-04-25T11:07:30;101486.03;;;10.49;46.98
48614;BME280;34408;51.426;5.444;2023-04-25T11:10:03;101479.00;;;10.55;47.55
48614;BME280;34408;51.426;5.444;2023-04-25T11:12:31;101491.19;;;10.57;47.70
48614;BME280;34408;51.426;5.444;2023-04-25T11:15:00;101482.72;;;10.54;47.69
48614;BME280;34408;51.426;5.444;2023-04-25T11:17:28;101486.84;;;10.56;47.73
48614;BME280;34408;51.426;5.444;2023-04-25T11:19:57;101499.47;;;10.56;47.67
48614;BME280;34408;51.426;5.444;2023-04-25T11:22:26;101490.38;;;10.50;47.75
48614;BME280;34408;51.426;5.444;2023-04-25T11:24:56;101491.41;;;10.49;47.33
48614;BME280;34408;51.426;5.444;2023-04-25T11:27:25;101494.09;;;10.49;47.68
48614;BME280;34408;51.426;5.444;2023-04-25T11:29:53;101492.63;;;10.47;47.78
48614;BME280;34408;51.426;5.444;2023-04-25T11:32:21;101502.56;;;10.46;47.44
48614;BME280;34408;51.426;5.444;2023-04-25T11:34:52;101498.44;;;10.43;47.33
48614;BME280;34408;51.426;5.444;2023-04-25T11:37:20;101503.63;;;10.38;47.64
48614;BME280;34408;51.426;5.444;2023-04-25T11:39:47;101512.50;;;10.39;47.85
48614;BME280;34408;51.426;5.444;2023-04-25T11:42:15;101513.31;;;10.26;48.60
48614;BME280;34408;51.426;5.444;2023-04-25T11:44:44;101535.81;;;10.25;48.61
48614;BME280;34408;51.426;5.444;2023-04-25T11:47:12;101541.97;;;10.19;48.74
48614;BME280;34408;51.426;5.444;2023-04-25T11:49:40;101541.81;;;10.21;48.71
48614;BME280;34408;51.426;5.444;2023-04-25T11:52:08;101543.66;;;10.20;48.68
48614;BME280;34408;51.426;5.444;2023-04-25T11:54:36;101537.88;;;10.23;48.67
48614;BME280;34408;51.426;5.444;2023-04-25T11:57:04;101535.22;;;10.30;49.02
48614;BME280;34408;51.426;5.444;2023-04-25T11:59:32;101539.34;;;10.32;48.73
48614;BME280;34408;51.426;5.444;2023-04-25T12:02:01;101533.59;;;10.35;48.84
48614;BME280;34408;51.426;5.444;2023-04-25T12:04:30;101541.63;;;10.35;48.96
48614;BME280;34408;51.426;5.444;2023-04-25T12:06:59;101534.81;;;10.33;48.72
48614;BME280;34408;51.426;5.444;2023-04-25T12:09:29;101534.00;;;10.32;48.52
48614;BME280;34408;51.426;5.444;2023-04-25T12:11:59;101537.09;;;10.36;48.31
48614;BME280;34408;51.426;5.444;2023-04-25T12:14:31;101544.94;;;10.37;48.32
48614;BME280;34408;51.426;5.444;2023-04-25T12:17:01;101557.16;;;10.40;48.01
48614;BME280;34408;51.426;5.444;2023-04-25T12:19:34;101546.16;;;10.41;48.02
48614;BME280;34408;51.426;5.444;2023-04-25T12:22:02;101549.69;;;10.42;47.77
48614;BME280;34408;51.426;5.444;2023-04-25T12:24:33;101557.34;;;10.45;47.97
48614;BME280;34408;51.426;5.444;2023-04-25T12:27:05;101548.84;;;10.41;48.41
48614;BME280;34408;51.426;5.444;2023-04-25T12:29:34;101557.94;;;10.40;48.34
48614;BME280;34408;51.426;5.444;2023-04-25T12:32:06;101552.81;;;10.39;47.54
48614;BME280;34408;51.426;5.444;2023-04-25T12:34:34;101553.84;;;10.38;47.70
48614;BME280;34408;51.426;5.444;2023-04-25T12:37:02;101547.44;;;10.39;47.14
48614;BME280;34408;51.426;5.444;2023-04-25T12:39:30;101547.81;;;10.42;47.27
48614;BME280;34408;51.426;5.444;2023-04-25T12:41:58;101532.13;;;10.46;47.72
48614;BME280;34408;51.426;5.444;2023-04-25T12:44:26;101550.13;;;10.52;47.59
48614;BME280;34408;51.426;5.444;2023-04-25T12:46:54;101549.28;;;10.52;47.00
48614;BME280;34408;51.426;5.444;2023-04-25T12:49:23;101550.94;;;10.53;47.34
48614;BME280;34408;51.426;5.444;2023-04-25T12:51:51;101563.34;;;10.54;45.47
48614;BME280;34408;51.426;5.444;2023-04-25T12:54:19;101558.38;;;10.51;46.52
48614;BME280;34408;51.426;5.444;2023-04-25T12:56:47;101574.28;;;10.46;45.57
48614;BME280;34408;51.426;5.444;2023-04-25T12:59:15;101564.56;;;10.44;45.43
48614;BME280;34408;51.426;5.444;2023-04-25T13:01:42;101571.41;;;10.47;45.15